Time;durP1;ratioP1;P1;durP2;ratioP2;P2;SDS_P1;SDS_P2;PMS_P1;PMS_P2;Temp;Humidity;BMP_temperature;BMP_pressure;BME280_temperature;BME280_humidity;BME280_pressure;Samples;Min_cycle;Max_cycle;Signal;HPM_P1;HPM_P2
2022/01/04 00:00:14;;;;;;;0.60;0.30;;;;;;;3.25;82.87;97161.66;6255218;28;20230;-71
2022/01/04 00:03:16;;;;;;;1.03;0.50;;;;;;;3.37;83.00;97172.28;6232846;28;20242;-72
2022/01/04 00:06:19;;;;;;;1.03;0.30;;;;;;;3.45;82.87;97168.28;6230180;28;20220;-72
2022/01/04 00:09:21;;;;;;;0.60;0.30;;;;;;;3.51;82.87;97160.06;6251023;28;20281;-72
2022/01/04 00:15:44;;;;;;;1.07;0.60;;;;;;;3.63;82.57;97140.25;6222903;28;20223;-72
2022/01/04 00:18:47;;;;;;;1.60;0.50;;;;;;;3.70;82.07;97139.75;6218618;28;20238;-72
2022/01/04 00:21:49;;;;;;;0.63;0.60;;;;;;;3.76;82.21;97132.50;6229223;28;20650;-72
2022/01/04 00:24:51;;;;;;;3.43;1.40;;;;;;;3.78;82.16;97128.88;6229042;28;20234;-72
2022/01/04 00:27:53;;;;;;;0.50;0.43;;;;;;;3.80;82.48;97121.75;6229114;28;20226;-72
2022/01/04 00:30:55;;;;;;;1.60;0.63;;;;;;;3.85;82.39;97131.94;6227752;28;20242;-72
2022/01/04 00:33:58;;;;;;;1.10;0.60;;;;;;;3.92;82.87;97115.78;6223762;28;20226;-72
2022/01/04 00:37:00;;;;;;;0.47;0.33;;;;;;;3.95;82.54;97117.38;6204943;28;20237;-71
2022/01/04 00:40:03;;;;;;;1.73;0.30;;;;;;;3.98;82.27;97111.97;6223774;28;20264;-72
2022/01/04 00:43:06;;;;;;;1.47;0.30;;;;;;;4.04;82.68;97108.94;6228489;28;20276;-71
2022/01/04 00:46:15;;;;;;;3.50;0.50;;;;;;;4.08;82.54;97102.63;6225243;28;20231;-72
2022/01/04 00:49:17;;;;;;;0.80;0.43;;;;;;;4.13;82.68;97105.75;6202608;28;20239;-71
2022/01/04 00:52:19;;;;;;;1.43;0.40;;;;;;;4.16;82.13;97102.97;6211357;28;20231;-71
2022/01/04 00:55:22;;;;;;;0.47;0.40;;;;;;;4.18;82.30;97089.81;6228010;28;20236;-72
2022/01/04 00:58:24;;;;;;;0.60;0.50;;;;;;;4.23;82.25;97098.16;6228904;28;20239;-72
2022/01/04 01:01:26;;;;;;;0.50;0.30;;;;;;;4.27;82.09;97086.59;6228287;28;20233;-72
2022/01/04 01:04:29;;;;;;;1.27;0.40;;;;;;;4.30;82.65;97084.59;6229469;28;20237;-72
2022/01/04 01:07:31;;;;;;;0.70;0.30;;;;;;;4.31;82.67;97073.22;6226434;28;20231;-72
2022/01/04 01:10:48;;;;;;;3.10;0.57;;;;;;;4.34;82.55;97070.44;6229578;28;20281;-72
2022/01/04 01:13:51;;;;;;;1.53;0.50;;;;;;;4.35;81.88;97066.88;6238761;28;20245;-72
2022/01/04 01:16:53;;;;;;;0.77;0.40;;;;;;;4.34;82.34;97065.19;6249910;28;20252;-72
2022/01/04 01:19:55;;;;;;;0.60;0.30;;;;;;;4.34;81.92;97056.53;6252911;28;20598;-72
2022/01/04 01:22:56;;;;;;;0.40;0.30;;;;;;;4.30;82.11;97055.88;6252787;28;20237;-72
2022/01/04 01:25:59;;;;;;;0.77;0.30;;;;;;;4.24;82.70;97047.63;6251669;28;20227;-71
2022/01/04 01:29:01;;;;;;;2.03;0.60;;;;;;;4.20;81.95;97039.13;6251497;28;20732;-72
2022/01/04 01:32:04;;;;;;;1.47;0.37;;;;;;;4.14;82.26;97033.47;6253348;28;20238;-72
2022/01/04 01:35:06;;;;;;;1.57;0.40;;;;;;;4.06;82.89;97026.16;6236442;28;20691;-72
2022/01/04 01:38:09;;;;;;;3.33;0.87;;;;;;;3.96;82.48;97033.75;6228674;28;20227;-72
2022/01/04 01:41:11;;;;;;;0.67;0.40;;;;;;;3.88;82.74;97025.56;6241180;28;20240;-72
2022/01/04 01:44:13;;;;;;;0.40;0.30;;;;;;;3.84;82.11;97023.25;6252305;28;20273;-72
2022/01/04 01:47:15;;;;;;;2.63;0.50;;;;;;;3.78;83.06;97013.22;6237293;28;20304;-72
2022/01/04 01:50:19;;;;;;;0.70;0.50;;;;;;;3.72;82.61;97009.19;6226182;28;20317;-72
2022/01/04 01:53:21;;;;;;;0.80;0.40;;;;;;;3.66;82.44;97001.78;6226722;28;20284;-71
2022/01/04 01:56:24;;;;;;;0.50;0.40;;;;;;;3.59;82.73;96993.47;6252341;28;20576;-72
2022/01/04 01:59:26;;;;;;;2.57;0.50;;;;;;;3.57;82.75;96999.75;6251720;28;20238;-72
2022/01/04 02:02:27;;;;;;;3.03;0.30;;;;;;;3.53;83.03;96998.25;6253573;28;20234;-71
2022/01/04 02:05:30;;;;;;;2.57;0.37;;;;;;;3.50;82.99;96988.84;6250216;28;20233;-72
2022/01/04 02:08:32;;;;;;;3.47;0.50;;;;;;;3.44;82.93;96983.19;6252290;28;20226;-72
2022/01/04 02:11:35;;;;;;;0.30;0.30;;;;;;;3.37;83.21;96977.53;6251128;28;20289;-72
2022/01/04 02:14:37;;;;;;;1.03;0.30;;;;;;;3.31;82.92;96963.09;6252172;28;20282;-72
2022/01/04 02:17:39;;;;;;;1.33;0.30;;;;;;;3.27;83.50;96977.28;6230910;28;20236;-71
2022/01/04 02:20:41;;;;;;;2.80;0.50;;;;;;;3.25;83.56;96976.53;6252189;28;20233;-72
2022/01/04 02:23:43;;;;;;;0.57;0.40;;;;;;;3.31;83.59;96970.06;6252547;28;20612;-72
2022/01/04 02:26:45;;;;;;;1.23;0.40;;;;;;;3.42;83.21;96975.47;6251749;28;20609;-72
2022/01/04 02:29:48;;;;;;;1.07;0.30;;;;;;;3.49;82.74;96950.69;6251562;28;20241;-72
2022/01/04 02:32:50;;;;;;;1.03;0.30;;;;;;;3.60;82.77;96942.13;6251061;28;20262;-72
2022/01/04 02:35:52;;;;;;;0.63;0.43;;;;;;;3.66;82.84;96937.38;6220913;28;20229;-72
2022/01/04 02:38:53;;;;;;;0.53;0.30;;;;;;;3.73;82.19;96932.59;6252175;28;20280;-72
2022/01/04 02:41:55;;;;;;;2.63;0.40;;;;;;;3.78;82.02;96927.94;6250952;28;20244;-71
2022/01/04 02:45:00;;;;;;;2.57;0.57;;;;;;;3.85;82.70;96916.13;6251916;28;20235;-72
2022/01/04 02:48:07;;;;;;;1.70;0.30;;;;;;;3.95;81.84;96898.09;6238717;28;20242;-72
2022/01/04 02:51:10;;;;;;;1.10;0.50;;;;;;;4.04;82.57;96893.09;6227939;28;20225;-72
2022/01/04 02:54:12;;;;;;;1.83;0.33;;;;;;;4.11;82.12;96897.91;6246766;28;20229;-72
2022/01/04 02:57:14;;;;;;;1.27;0.30;;;;;;;4.16;82.26;96886.22;6254405;28;20221;-71
2022/01/04 03:00:16;;;;;;;3.83;1.40;;;;;;;4.22;82.05;96888.41;6256721;28;20230;-72
2022/01/04 03:03:18;;;;;;;0.50;0.50;;;;;;;4.25;82.49;96885.59;6254941;28;20232;-72
2022/01/04 03:06:20;;;;;;;0.60;0.40;;;;;;;4.31;81.99;96879.13;6254650;28;20751;-71
2022/01/04 03:09:22;;;;;;;0.90;0.37;;;;;;;4.37;81.38;96876.94;6240025;28;20693;-72
2022/01/04 03:12:24;;;;;;;1.23;0.30;;;;;;;4.41;81.84;96873.16;6255644;28;20559;-72
2022/01/04 03:15:26;;;;;;;0.43;0.40;;;;;;;4.44;82.26;96866.91;6252124;28;20230;-72
2022/01/04 03:18:28;;;;;;;0.97;0.43;;;;;;;4.43;81.44;96858.22;6249104;28;20702;-72
2022/01/04 03:21:30;;;;;;;0.83;0.40;;;;;;;4.46;81.46;96859.78;6255683;28;20218;-71
2022/01/04 03:24:32;;;;;;;0.93;0.30;;;;;;;4.48;81.79;96851.84;6255928;28;20284;-72
2022/01/04 03:27:34;;;;;;;0.40;0.30;;;;;;;4.52;81.39;96842.84;6256305;28;20601;-72
2022/01/04 03:30:36;;;;;;;0.60;0.30;;;;;;;4.53;82.01;96826.22;6256389;28;20221;-71
2022/01/04 03:33:38;;;;;;;1.07;0.40;;;;;;;4.60;81.28;96836.13;6250982;28;20238;-72
2022/01/04 03:36:41;;;;;;;0.50;0.30;;;;;;;4.67;81.10;96824.34;6230369;28;20519;-72
2022/01/04 03:39:43;;;;;;;2.13;0.47;;;;;;;4.72;81.52;96813.53;6252252;28;20695;-72
2022/01/04 03:42:45;;;;;;;2.03;0.50;;;;;;;4.79;81.67;96809.56;6253759;28;20699;-72
2022/01/04 03:45:48;;;;;;;1.73;0.40;;;;;;;4.86;81.98;96796.88;6248738;28;20254;-72
2022/01/04 03:48:50;;;;;;;0.30;0.30;;;;;;;4.92;81.36;96793.81;6230075;28;20227;-72
2022/01/04 03:51:52;;;;;;;1.03;0.40;;;;;;;4.96;81.78;96779.59;6239760;28;20223;-72
2022/01/04 03:54:55;;;;;;;1.87;0.40;;;;;;;4.98;81.50;96778.56;6254930;28;20273;-72
2022/01/04 03:57:57;;;;;;;1.53;0.30;;;;;;;5.02;80.52;96771.28;6254856;28;20230;-72
2022/01/04 04:01:00;;;;;;;0.63;0.30;;;;;;;4.99;81.35;96766.31;6255880;28;20235;-72
2022/01/04 04:04:03;;;;;;;0.97;0.33;;;;;;;4.93;80.77;96762.34;6256632;28;20243;-72
2022/01/04 04:07:05;;;;;;;2.00;0.40;;;;;;;4.89;80.69;96760.88;6254309;28;20239;-71
2022/01/04 04:10:08;;;;;;;1.40;0.40;;;;;;;4.84;81.48;96763.00;6253876;28;20235;-72
2022/01/04 04:13:10;;;;;;;0.93;0.57;;;;;;;4.81;81.33;96766.66;6253927;28;20230;-72
2022/01/04 04:16:11;;;;;;;2.83;0.43;;;;;;;4.79;80.98;96771.16;6242335;28;20235;-72
2022/01/04 04:19:13;;;;;;;1.57;0.30;;;;;;;4.80;80.93;96767.63;6236226;28;20681;-72
2022/01/04 04:22:15;;;;;;;0.40;0.30;;;;;;;4.83;80.59;96764.78;6254720;28;20284;-72
2022/01/04 04:25:17;;;;;;;1.07;0.50;;;;;;;4.85;81.43;96756.84;6252116;28;20711;-71
2022/01/04 04:28:19;;;;;;;0.70;0.70;;;;;;;4.89;80.64;96760.88;6254209;28;20726;-72
2022/01/04 04:31:21;;;;;;;6.10;1.00;;;;;;;4.89;80.48;96747.81;6253702;28;20342;-72
2022/01/04 04:34:23;;;;;;;1.00;0.50;;;;;;;4.92;81.10;96752.00;6245617;28;20704;-72
2022/01/04 04:37:25;;;;;;;2.60;1.00;;;;;;;4.95;80.83;96741.31;6229490;28;20639;-72
2022/01/04 04:40:27;;;;;;;0.80;0.40;;;;;;;4.95;80.84;96728.25;6239945;28;20231;-72
2022/01/04 04:43:29;;;;;;;1.17;0.60;;;;;;;4.94;80.21;96719.56;6253832;28;20738;-71
2022/01/04 04:46:31;;;;;;;0.90;0.63;;;;;;;4.97;80.14;96713.28;6246302;28;20772;-72
2022/01/04 04:49:33;;;;;;;0.67;0.43;;;;;;;4.96;80.16;96711.63;6230462;28;20245;-72
2022/01/04 04:52:36;;;;;;;0.50;0.40;;;;;;;4.98;79.99;96714.97;6229432;28;20238;-71
2022/01/04 04:55:38;;;;;;;1.23;0.60;;;;;;;5.00;79.63;96711.28;6252433;28;20512;-72
2022/01/04 04:58:40;;;;;;;1.10;0.87;;;;;;;4.98;80.25;96725.44;6252398;28;20606;-72
2022/01/04 05:01:42;;;;;;;1.00;0.90;;;;;;;4.95;79.56;96723.84;6250363;28;20355;-72
2022/01/04 05:04:44;;;;;;;6.20;3.57;;;;;;;4.98;80.11;96722.81;6252938;28;20277;-72
2022/01/04 05:07:46;;;;;;;2.97;2.30;;;;;;;5.03;79.89;96711.06;6253688;28;20234;-72
2022/01/04 05:10:48;;;;;;;4.00;2.60;;;;;;;5.02;80.25;96706.75;6250959;28;20227;-72
2022/01/04 05:13:50;;;;;;;4.13;2.00;;;;;;;5.01;80.17;96707.72;6252626;28;20234;-72
2022/01/04 05:16:51;;;;;;;1.33;1.10;;;;;;;4.99;80.60;96700.94;6237066;28;20235;-72
2022/01/04 05:19:53;;;;;;;2.70;1.93;;;;;;;5.03;81.05;96699.75;6203153;28;20584;-74
2022/01/04 05:22:55;;;;;;;2.57;1.40;;;;;;;5.02;80.04;96709.38;6243208;28;20269;-72
2022/01/04 05:25:57;;;;;;;1.27;1.13;;;;;;;4.97;80.04;96698.44;6251355;28;20235;-71
2022/01/04 05:29:01;;;;;;;1.70;1.30;;;;;;;4.96;80.54;96696.78;6253844;28;20231;-72
2022/01/04 05:32:04;;;;;;;1.73;1.00;;;;;;;4.97;80.56;96688.00;6250339;28;20231;-72
2022/01/04 05:35:07;;;;;;;5.03;0.80;;;;;;;4.96;81.37;96699.38;6237784;28;20224;-72
2022/01/04 05:38:09;;;;;;;0.60;0.60;;;;;;;4.96;81.39;96693.31;6230322;28;20227;-72
2022/01/04 05:41:11;;;;;;;2.27;0.60;;;;;;;4.96;80.94;96669.78;6253825;28;20605;-72
2022/01/04 05:44:13;;;;;;;4.37;0.60;;;;;;;4.98;80.99;96667.91;6253329;28;20242;-72
2022/01/04 05:47:15;;;;;;;3.43;0.70;;;;;;;4.94;80.97;96664.66;6234972;28;20224;-73
2022/01/04 05:50:17;;;;;;;1.10;0.60;;;;;;;4.94;81.55;96664.66;6228337;28;20240;-72
2022/01/04 05:53:19;;;;;;;1.70;0.50;;;;;;;4.93;82.19;96670.00;6242884;28;20265;-72
2022/01/04 05:56:21;;;;;;;0.83;0.40;;;;;;;4.91;81.81;96666.66;6251818;28;20245;-72
2022/01/04 05:59:22;;;;;;;0.50;0.30;;;;;;;4.87;82.07;96660.84;6252208;28;20238;-71
2022/01/04 06:02:25;;;;;;;0.60;0.30;;;;;;;4.87;82.16;96657.41;6251926;28;20254;-72
2022/01/04 06:05:30;;;;;;;0.53;0.40;;;;;;;4.87;81.34;96637.31;6251119;28;20242;-72
2022/01/04 06:08:36;;;;;;;2.10;0.40;;;;;;;4.86;82.34;96640.88;6252904;28;20229;-72
2022/01/04 06:14:52;;;;;;;0.77;0.40;;;;;;;4.88;81.94;96619.88;6252333;28;20242;-72
2022/01/04 06:17:54;;;;;;;1.63;0.30;;;;;;;4.89;81.83;96632.78;6246970;28;20238;-72
2022/01/04 06:20:57;;;;;;;0.67;0.60;;;;;;;4.87;82.28;96612.97;6252089;28;20237;-72
2022/01/04 06:23:59;;;;;;;0.83;0.50;;;;;;;4.88;82.33;96585.88;6250944;28;20231;-72
2022/01/04 06:27:05;;;;;;;0.53;0.50;;;;;;;4.89;81.62;96606.66;6234094;28;20575;-72
2022/01/04 06:30:07;;;;;;;2.90;0.40;;;;;;;4.87;82.52;96612.97;6256602;28;20253;-71
2022/01/04 06:33:10;;;;;;;1.20;0.53;;;;;;;4.86;82.42;96606.91;6256909;28;20199;-72
2022/01/04 06:36:13;;;;;;;0.53;0.30;;;;;;;4.87;81.82;96574.59;6231643;28;20211;-72
2022/01/04 06:39:16;;;;;;;1.00;0.40;;;;;;;4.91;82.21;96583.84;6231743;28;20216;-72
2022/01/04 06:42:18;;;;;;;0.83;0.40;;;;;;;4.92;82.01;96582.06;6254087;28;20219;-72
2022/01/04 06:45:20;;;;;;;2.77;0.47;;;;;;;4.97;82.37;96585.19;6252116;28;20239;-71
2022/01/04 06:48:22;;;;;;;2.93;0.60;;;;;;;5.01;81.32;96578.75;6231781;28;20237;-72
2022/01/04 06:51:23;;;;;;;1.33;0.40;;;;;;;5.00;82.14;96572.69;6231406;28;20231;-75
2022/01/04 06:54:25;;;;;;;1.43;0.53;;;;;;;4.98;81.57;96566.78;6240207;28;20249;-72
2022/01/04 06:57:27;;;;;;;0.73;0.40;;;;;;;4.97;81.96;96572.94;6257431;28;20230;-72
2022/01/04 07:00:29;;;;;;;2.13;0.37;;;;;;;4.95;82.19;96572.22;6256267;28;20310;-71
2022/01/04 07:03:32;;;;;;;0.70;0.70;;;;;;;4.99;81.85;96578.88;6255003;28;20223;-72
2022/01/04 07:06:34;;;;;;;0.67;0.43;;;;;;;5.04;81.76;96579.38;6253816;28;20237;-72
2022/01/04 07:09:37;;;;;;;1.27;0.70;;;;;;;5.07;81.80;96580.94;6255908;28;20282;-72
2022/01/04 07:12:39;;;;;;;0.93;0.50;;;;;;;5.11;81.63;96579.72;6255288;28;20229;-72
2022/01/04 07:15:41;;;;;;;1.80;0.57;;;;;;;5.15;81.66;96571.53;6249610;28;20722;-72
2022/01/04 07:18:48;;;;;;;1.20;0.50;;;;;;;5.20;81.01;96577.25;6238863;28;20282;-72
2022/01/04 07:21:50;;;;;;;1.53;0.70;;;;;;;5.25;81.64;96582.13;6254975;28;20706;-71
2022/01/04 07:24:52;;;;;;;0.50;0.40;;;;;;;5.30;81.37;96579.16;6253179;28;20261;-72
2022/01/04 07:27:54;;;;;;;0.93;0.57;;;;;;;5.35;80.82;96569.19;6255032;28;20706;-72
2022/01/04 07:30:56;;;;;;;0.80;0.47;;;;;;;5.41;81.13;96560.84;6255258;28;20234;-71
2022/01/04 07:33:58;;;;;;;0.93;0.50;;;;;;;5.43;81.38;96562.41;6249851;28;20219;-72
2022/01/04 07:37:01;;;;;;;1.90;0.50;;;;;;;5.47;81.62;96549.94;6230312;28;20290;-72
2022/01/04 07:40:05;;;;;;;0.40;0.40;;;;;;;5.52;81.49;96555.63;6241590;28;20227;-71
2022/01/04 07:43:07;;;;;;;1.43;0.40;;;;;;;5.57;81.25;96545.63;6255070;28;20223;-72
2022/01/04 07:46:09;;;;;;;1.60;0.60;;;;;;;5.62;80.91;96540.03;6252313;28;20224;-72
2022/01/04 07:49:11;;;;;;;0.87;0.30;;;;;;;5.68;81.20;96534.31;6234856;28;20704;-72
2022/01/04 07:52:13;;;;;;;0.63;0.40;;;;;;;5.71;81.05;96521.81;6231449;28;20244;-72
2022/01/04 07:55:16;;;;;;;2.20;0.60;;;;;;;5.75;81.09;96523.25;6255652;28;20236;-72
2022/01/04 07:58:18;;;;;;;0.43;0.30;;;;;;;5.81;81.22;96511.44;6252392;28;20235;-72
2022/01/04 08:01:20;;;;;;;1.03;0.43;;;;;;;5.89;80.77;96502.03;6254261;28;20235;-72
2022/01/04 08:04:23;;;;;;;1.40;0.33;;;;;;;5.96;80.96;96498.94;6253346;28;20639;-72
2022/01/04 08:07:25;;;;;;;1.60;0.47;;;;;;;6.02;80.96;96491.41;6253068;28;20717;-72
2022/01/04 08:10:27;;;;;;;1.03;0.53;;;;;;;6.09;80.82;96484.72;6254447;28;20262;-72
2022/01/04 08:13:30;;;;;;;0.60;0.50;;;;;;;6.16;80.62;96479.81;6251787;28;20233;-71
2022/01/04 08:16:32;;;;;;;1.70;0.80;;;;;;;6.23;80.59;96492.28;6242628;28;20318;-72
2022/01/04 08:19:36;;;;;;;0.53;0.53;;;;;;;6.34;79.66;96491.41;6253709;28;20234;-72
2022/01/04 08:22:38;;;;;;;0.30;0.30;;;;;;;6.46;79.30;96482.53;6253310;28;20310;-72
2022/01/04 08:25:40;;;;;;;1.23;0.43;;;;;;;6.59;78.98;96477.91;6253361;28;20246;-72
2022/01/04 08:28:42;;;;;;;0.50;0.47;;;;;;;6.74;78.38;96467.94;6252753;28;20228;-72
2022/01/04 08:31:44;;;;;;;0.60;0.60;;;;;;;6.91;78.12;96453.41;6253411;28;20232;-72
2022/01/04 08:34:46;;;;;;;0.83;0.60;;;;;;;6.97;77.94;96456.34;6239371;28;20231;-72
2022/01/04 08:37:48;;;;;;;1.33;0.50;;;;;;;7.00;77.58;96458.69;6235082;28;20231;-72
2022/01/04 08:40:50;;;;;;;0.47;0.47;;;;;;;6.99;77.84;96451.78;6253470;28;20226;-72
2022/01/04 08:43:52;;;;;;;1.80;0.40;;;;;;;6.96;77.71;96459.94;6253282;28;20228;-74
2022/01/04 08:46:54;;;;;;;1.10;0.47;;;;;;;6.96;77.68;96459.09;6238349;28;20245;-72
2022/01/04 08:49:56;;;;;;;1.90;0.40;;;;;;;6.96;77.85;96446.00;6228638;28;20324;-72
2022/01/04 08:52:58;;;;;;;0.30;0.30;;;;;;;7.00;77.61;96442.94;6229113;28;20232;-72
2022/01/04 08:56:01;;;;;;;1.83;0.30;;;;;;;7.10;77.78;96436.91;6253716;28;20228;-72
2022/01/04 08:59:05;;;;;;;2.60;0.40;;;;;;;7.18;77.54;96443.19;6251757;28;20238;-71
2022/01/04 09:02:07;;;;;;;1.03;0.30;;;;;;;7.27;76.81;96445.00;6252984;28;20230;-72
2022/01/04 09:05:11;;;;;;;0.43;0.40;;;;;;;7.39;76.48;96443.91;6253382;28;20241;-72
2022/01/04 09:08:13;;;;;;;0.33;0.33;;;;;;;7.51;76.14;96449.91;6252950;28;20233;-73
2022/01/04 09:11:17;;;;;;;0.77;0.50;;;;;;;7.58;75.68;96431.84;6253408;28;20244;-72
2022/01/04 09:14:30;;;;;;;0.60;0.30;;;;;;;7.63;75.61;96458.50;6250492;28;20244;-72
2022/01/04 09:20:53;;;;;;;0.73;0.40;;;;;;;7.78;75.19;96447.47;6250327;28;20244;-72
2022/01/04 09:23:59;;;;;;;2.37;0.40;;;;;;;7.89;75.32;96428.13;6235204;28;20229;-73
2022/01/04 09:27:05;;;;;;;0.93;0.40;;;;;;;8.04;74.55;96416.25;6232557;28;20240;-71
2022/01/04 09:30:08;;;;;;;0.80;0.40;;;;;;;8.27;74.18;96402.81;6241396;28;20218;-72
2022/01/04 09:33:10;;;;;;;0.67;0.53;;;;;;;8.40;73.07;96390.22;6252136;28;20587;-72
2022/01/04 09:36:12;;;;;;;0.73;0.30;;;;;;;8.49;72.24;96381.47;6227450;28;20280;-74
2022/01/04 09:39:18;;;;;;;0.53;0.40;;;;;;;8.54;71.92;96384.53;6231654;28;20212;-72
2022/01/04 09:42:21;;;;;;;0.37;0.33;;;;;;;8.53;72.32;96377.63;6251839;28;20619;-72
2022/01/04 09:45:23;;;;;;;0.50;0.50;;;;;;;8.51;72.20;96375.13;6248317;28;20700;-73
2022/01/04 09:48:26;;;;;;;0.63;0.50;;;;;;;8.52;72.29;96368.06;6236871;28;20308;-73
2022/01/04 09:51:31;;;;;;;0.93;0.47;;;;;;;8.53;72.33;96369.72;6227338;28;20721;-72
2022/01/04 09:54:34;;;;;;;1.00;0.40;;;;;;;8.60;72.26;96362.09;6243496;28;20697;-72
2022/01/04 09:57:36;;;;;;;2.93;0.60;;;;;;;8.68;72.03;96357.78;6251302;28;20420;-72
2022/01/04 10:00:38;;;;;;;0.77;0.40;;;;;;;8.76;70.76;96350.00;6251771;28;20244;-71
2022/01/04 10:03:41;;;;;;;0.50;0.50;;;;;;;8.85;69.53;96341.25;6253028;28;20245;-72
2022/01/04 10:07:05;;;;;;;2.50;0.43;;;;;;;8.93;67.21;96344.94;6257524;28;20238;-73
2022/01/04 10:10:12;;;;;;;1.23;0.50;;;;;;;8.94;67.29;96331.63;6257984;28;20223;-72
2022/01/04 10:13:15;;;;;;;0.80;0.50;;;;;;;8.99;64.97;96331.19;6256588;28;20245;-73
2022/01/04 10:16:17;;;;;;;0.90;0.60;;;;;;;9.13;63.50;96315.75;6246258;28;20237;-72
2022/01/04 10:19:30;;;;;;;2.30;0.60;;;;;;;9.26;65.32;96312.75;6254732;28;20242;-73
2022/01/04 10:22:35;;;;;;;0.70;0.60;;;;;;;9.30;65.55;96302.75;6260810;28;20246;-72
2022/01/04 10:25:38;;;;;;;1.37;0.60;;;;;;;9.33;65.51;96299.81;6256862;28;20778;-72
2022/01/04 10:28:46;;;;;;;1.77;0.50;;;;;;;9.43;64.00;96298.78;6256200;28;20231;-72
2022/01/04 10:31:48;;;;;;;1.70;0.60;;;;;;;9.67;63.16;96286.81;6256427;28;20730;-73
2022/01/04 10:34:51;;;;;;;2.10;0.80;;;;;;;9.92;61.24;96284.22;6243419;28;20228;-73
2022/01/04 10:37:55;;;;;;;1.23;0.60;;;;;;;10.05;57.60;96283.81;6238316;28;20672;-72
2022/01/04 10:41:01;;;;;;;0.93;0.50;;;;;;;10.10;58.06;96283.34;6255551;28;20239;-73
2022/01/04 10:44:10;;;;;;;1.00;0.40;;;;;;;10.08;57.61;96278.22;6256528;28;20235;-73
2022/01/04 10:47:12;;;;;;;0.90;0.53;;;;;;;10.09;57.63;96286.97;6238162;28;20235;-73
2022/01/04 10:50:29;;;;;;;2.40;0.63;;;;;;;10.09;57.31;96266.69;6231526;28;20239;-72
2022/01/04 10:53:36;;;;;;;3.37;0.73;;;;;;;10.05;57.13;96260.09;6251282;28;20221;-73
2022/01/04 10:56:38;;;;;;;2.13;0.53;;;;;;;10.02;56.72;96255.13;6255861;28;20231;-72
2022/01/04 10:59:40;;;;;;;0.97;0.70;;;;;;;10.02;56.71;96259.56;6256825;28;20626;-73
2022/01/04 11:02:42;;;;;;;0.80;0.60;;;;;;;9.96;57.38;96251.31;6256659;28;20230;-72
2022/01/04 11:05:44;;;;;;;1.00;0.50;;;;;;;9.92;56.83;96241.22;6256542;28;20994;-73
2022/01/04 11:08:46;;;;;;;1.17;0.50;;;;;;;9.87;57.34;96228.53;6254814;28;20238;-72
2022/01/04 11:11:48;;;;;;;0.70;0.53;;;;;;;9.82;58.25;96220.25;6256161;28;20229;-72
2022/01/04 11:14:50;;;;;;;0.40;0.30;;;;;;;9.78;58.80;96204.91;6255758;28;20594;-73
2022/01/04 11:17:53;;;;;;;0.90;0.60;;;;;;;9.76;57.76;96194.53;6253069;28;20645;-72
2022/01/04 11:20:55;;;;;;;0.60;0.40;;;;;;;9.74;59.52;96191.22;6255427;28;20309;-72
2022/01/04 11:24:01;;;;;;;0.53;0.47;;;;;;;9.69;60.00;96190.00;6253978;28;20652;-73
2022/01/04 11:27:03;;;;;;;0.87;0.60;;;;;;;9.62;60.56;96179.28;6253635;28;20711;-73
2022/01/04 11:30:26;;;;;;;1.70;0.73;;;;;;;9.55;61.83;96175.59;6260995;28;20564;-72
2022/01/04 11:33:50;;;;;;;2.73;1.37;;;;;;;9.48;62.58;96169.31;6252928;28;20742;-72
2022/01/04 11:36:52;;;;;;;3.83;1.80;;;;;;;9.43;63.01;96164.50;6231141;28;20342;-73
2022/01/04 11:39:56;;;;;;;2.87;2.27;;;;;;;9.44;63.35;96171.41;6234612;28;20633;-72
2022/01/04 11:42:59;;;;;;;4.23;2.30;;;;;;;9.43;63.40;96167.13;6252982;28;20249;-73
2022/01/04 11:46:02;;;;;;;3.70;2.43;;;;;;;9.42;64.18;96154.09;6246690;28;20609;-73
2022/01/04 11:49:11;;;;;;;3.80;2.50;;;;;;;9.46;63.79;96137.84;6234727;28;20259;-72
2022/01/04 11:52:37;;;;;;;2.60;1.90;;;;;;;9.51;64.19;96116.31;6229836;28;20236;-72
2022/01/04 11:55:48;;;;;;;2.30;1.80;;;;;;;9.52;64.27;96110.06;6251376;28;20238;-73
2022/01/04 11:58:50;;;;;;;3.10;1.60;;;;;;;9.56;63.09;96106.97;6253979;28;20633;-72
2022/01/04 12:01:54;;;;;;;2.53;1.17;;;;;;;9.60;63.82;96108.31;6252474;28;20553;-73
2022/01/04 12:05:04;;;;;;;1.73;1.30;;;;;;;9.63;63.83;96094.84;6254653;28;20611;-73
2022/01/04 12:08:34;;;;;;;1.83;1.33;;;;;;;9.62;63.40;96114.25;6253936;28;20730;-72
2022/01/04 12:11:40;;;;;;;1.40;1.20;;;;;;;9.63;64.52;96096.63;6253888;28;20697;-73
2022/01/04 12:14:42;;;;;;;1.23;1.10;;;;;;;9.67;64.58;96094.53;6246352;28;20234;-73
2022/01/04 12:17:46;;;;;;;1.27;1.00;;;;;;;9.74;66.21;96085.00;6233818;28;20695;-73
2022/01/04 12:20:58;;;;;;;1.57;1.00;;;;;;;9.77;66.41;96075.00;6254297;28;20229;-73
2022/01/04 12:24:01;;;;;;;1.90;0.90;;;;;;;9.79;67.28;96073.00;6254701;28;20234;-73
2022/01/04 12:27:09;;;;;;;2.17;1.50;;;;;;;9.84;68.25;96076.00;6252188;28;20242;-73
2022/01/04 12:30:28;;;;;;;3.57;1.87;;;;;;;10.03;67.35;96068.84;6254011;28;20600;-73
2022/01/04 12:33:37;;;;;;;3.03;1.90;;;;;;;10.26;66.32;96065.50;6252123;28;20742;-71
2022/01/04 12:36:41;;;;;;;2.90;2.03;;;;;;;10.41;66.12;96062.22;6246741;28;20762;-72
2022/01/04 12:39:44;;;;;;;3.77;3.00;;;;;;;10.49;65.45;96062.22;6235620;28;20226;-72
2022/01/04 12:42:46;;;;;;;3.83;3.00;;;;;;;10.53;65.52;96063.56;6252113;28;20607;-72
2022/01/04 12:45:59;;;;;;;4.70;3.43;;;;;;;10.56;65.04;96042.13;6247117;28;20654;-73
2022/01/04 12:49:13;;;;;;;4.37;3.57;;;;;;;10.57;65.23;96035.88;6229100;28;20638;-73
2022/01/04 12:52:19;;;;;;;4.50;3.60;;;;;;;10.56;65.58;96036.88;6233114;28;20735;-73
2022/01/04 12:55:21;;;;;;;5.57;3.30;;;;;;;10.51;65.50;96039.16;6251267;28;20227;-73
2022/01/04 12:58:24;;;;;;;4.07;3.17;;;;;;;10.48;65.41;96036.88;6253417;28;20261;-72
2022/01/04 13:01:29;;;;;;;3.37;2.83;;;;;;;10.49;65.30;96035.84;6251690;28;20691;-71
2022/01/04 13:04:34;;;;;;;4.30;3.43;;;;;;;10.52;66.52;96022.34;6253389;28;20608;-73
2022/01/04 13:07:39;;;;;;;4.37;3.47;;;;;;;10.54;66.79;96021.19;6252033;28;20608;-73
2022/01/04 13:10:41;;;;;;;6.47;3.33;;;;;;;10.55;66.51;96029.94;6251861;28;20263;-73
2022/01/04 13:13:43;;;;;;;5.53;2.77;;;;;;;10.53;66.65;96029.28;6253773;28;20692;-72
2022/01/04 13:16:46;;;;;;;3.83;3.43;;;;;;;10.47;67.26;96035.22;6246262;28;20228;-73
2022/01/04 13:19:50;;;;;;;5.33;3.23;;;;;;;10.40;67.29;96010.44;6253088;28;20709;-73
2022/01/04 13:22:52;;;;;;;4.53;2.90;;;;;;;10.33;67.94;96000.56;6252629;28;20230;-72
2022/01/04 13:25:58;;;;;;;4.23;3.27;;;;;;;10.35;68.05;95990.69;6254302;28;20234;-73
2022/01/04 13:29:01;;;;;;;3.83;2.97;;;;;;;10.41;68.49;95988.38;6252530;28;20743;-73
2022/01/04 13:32:07;;;;;;;3.93;2.80;;;;;;;10.45;68.83;95992.34;6253069;28;20782;-73
2022/01/04 13:35:15;;;;;;;2.93;2.63;;;;;;;10.49;68.78;95977.81;6240762;28;20242;-73
2022/01/04 13:38:21;;;;;;;3.67;2.67;;;;;;;10.49;69.32;95978.66;6228226;28;20228;-72
2022/01/04 13:41:35;;;;;;;3.03;2.30;;;;;;;10.46;69.64;95973.72;6239644;28;20772;-73
2022/01/04 13:44:53;;;;;;;3.10;2.50;;;;;;;10.42;70.10;95975.03;6250528;28;20598;-73
2022/01/04 13:47:58;;;;;;;3.30;2.50;;;;;;;10.45;69.60;95963.34;6226718;28;20764;-72
2022/01/04 13:51:10;;;;;;;4.10;2.47;;;;;;;10.43;70.59;95970.56;6235048;28;20243;-73
2022/01/04 13:54:14;;;;;;;2.40;2.10;;;;;;;10.43;70.06;95962.66;6251596;28;20626;-73
2022/01/04 13:57:16;;;;;;;3.00;2.13;;;;;;;10.44;69.81;95967.78;6251931;28;20219;-72
2022/01/04 14:00:33;;;;;;;3.77;2.07;;;;;;;10.45;69.90;95964.16;6252357;28;20225;-73
2022/01/04 14:03:36;;;;;;;1.60;1.50;;;;;;;10.44;70.02;95953.78;6251515;28;20229;-72
2022/01/04 14:06:47;;;;;;;2.50;2.03;;;;;;;10.43;69.68;95958.22;6250904;28;20243;-72
2022/01/04 14:09:53;;;;;;;2.07;1.87;;;;;;;10.38;70.51;95954.44;6252626;28;21019;-72
2022/01/04 14:12:55;;;;;;;1.97;1.60;;;;;;;10.31;69.33;95941.06;6250546;28;20243;-73
2022/01/04 14:16:13;;;;;;;1.73;1.50;;;;;;;10.25;69.49;95939.94;6241613;28;20228;-72
2022/01/04 14:19:26;;;;;;;2.20;1.67;;;;;;;10.16;69.12;95946.16;6239193;28;20232;-72
2022/01/04 14:22:31;;;;;;;3.57;2.10;;;;;;;9.93;71.63;95942.47;6252875;28;20232;-72
2022/01/04 14:25:33;;;;;;;4.23;2.27;;;;;;;9.72;72.55;95940.28;6251753;28;20233;-72
2022/01/04 14:28:35;;;;;;;2.43;2.10;;;;;;;9.52;72.85;95937.09;6251858;28;20227;-72
2022/01/04 14:31:37;;;;;;;2.73;2.00;;;;;;;9.35;74.32;95943.28;6256101;28;20223;-73
2022/01/04 14:34:39;;;;;;;4.70;1.80;;;;;;;9.21;74.94;95939.44;6245979;28;20235;-72
2022/01/04 14:37:43;;;;;;;2.07;1.50;;;;;;;9.11;74.91;95936.09;6228964;28;20726;-72
2022/01/04 14:40:45;;;;;;;2.13;1.67;;;;;;;8.96;75.02;95939.47;6247250;28;20235;-72
2022/01/04 14:43:47;;;;;;;3.47;2.03;;;;;;;8.85;75.34;95930.88;6251180;28;20226;-72